Angel Fire, New Mexico
Current Conditions -  °F | °C
As of 11:55 AM on Friday 24 Oct 2014 (Local Time) from KAXX Reporting Station
Clear Clear  
Wind Chill: 64°   Ceiling: Unl
Heat Index: 64°   Visibility: 10mi
Dew Point: 26°   Wind: 0mph
Humidity: 25%   Direction: NA
Pressure: 30.45"   Gusts: NA
Location:  36.39°N, 105.29°W
Report Text: KAXX 241755Z AUTO 00000KT 10SM CLR 18/M03 A3045 RMK AO2 T01751031 10175 21055
Loading
Personal Weather Stations






























Interactive Weather Map
Tropical Storm Tracking
New forecast layout! Learn more

10-Day Weather Forecast

Advertisements
Track Severe Weather on mobile